Pagrindinis puslapis
METAR-TAF:

METAR-TAF

Oro uostai :

Taba, Egiptas

platuma: 29-35-57N, ilguma: 034-46-36E, Aukštis: 749 m

METAR: trūkstamas

Laikas: 15:30 (13:30 UTC)

Prognozė

Ataskaita buvo paskelbta 2 valandos ir 30 minutes, ne 11:00 UTC
Prognozė galioja nuo 20 metu 12 UTC su 21 metu 18 UTC
Vėjas 18 kt iš Šiaurės
Matomumas: 6000 m
Laikinai
nuo 20 metu 12 UTC su 20 metu 18 UTC
Matomumas: 4000 m
Smėlis,

TAF: HETB 201100Z 2012/2118 01018KT 6000 NSC TEMPO 2012/2018 4000 SA

Orai ataskaitas ir orų prognozės (METAR, TAF).

turimą stotys yra geltonos ir raudonos taškus žemėlapyje.

Perkelti pele per norėdami pamatyti stoties vardą.

Tada spustelėkite, norėdami matyti oro stebėjimo ir prognozės.

Norėdami pakeisti žemėlapį: spustelėkite ant žalios mygtukų su juodo kryžiaus žemyn,; žalią mygtuką su brūkšneliu, jei norite nutolinti; arba žalių rodyklių gretimoms žemėlapius.


METAR-TAF: